Arlington, VA

5:44 AM EDT on August 04, 2015 (GMT -0400)
Ashton Heights | | Change Station
CLOSE
Current Station
Personal Weather Station
Location: Arlington, VA
Elevation: 280 ft
Nearby Weather Stations

Elev 280 ft 38.88 °N, 77.10 °W | Updated 44 minutes ago

Overcast
Overcast
76.1 °F
Feels Like 76 °F
N
3.1
Wind Variable Wind from West
Gusts 6.9 mph

Today
High -- | Low -- °F
--% Chance of Precip.
Yesterday
High -- | Low -- °F
Precip. -- in
6:11 AM 8:16 PM
Waning Gibbous, 79% visible
Pressure 29.91 in
Visibility 10.0 miles
Clouds Few 3500 ft
Scattered Clouds 7000 ft
Mostly Cloudy 14000 ft
Mostly Cloudy 25000 ft
Heat Index 76 °F
Dew Point 74 °F
Humidity 92%
Rainfall 0.00 in
Snow Depth Not available.
UV 0 out of 12
Pollen 8.10 out of 12
Air Quality Not available.
Flu Activity Not available.
SPECI KDCA 040918Z 33019G24KT 10SM FEW035 SCT070 BKN140 BKN250 27/17 A2991 RMK AO2 PK WND 32026/0906 WSHFT 0902 CONS LTGICCCCA DSNT N-NE CB DSNT N-NE MOV E

More Conditions Fewer Conditions

Pressure 29.91 in
Visibility 10.0 miles
Clouds Few 3500 ft
Scattered Clouds 7000 ft
Mostly Cloudy 14000 ft
Mostly Cloudy 25000 ft
Heat Index 76 °F
Dew Point 74 °F
Humidity 92%
Rainfall 0.00 in
Snow Depth Not available.
UV 0 out of 12
Pollen 8.10 out of 12
Air Quality Not available.
Flu Activity Not available.
SPECI KDCA 040918Z 33019G24KT 10SM FEW035 SCT070 BKN140 BKN250 27/17 A2991 RMK AO2 PK WND 32026/0906 WSHFT 0902 CONS LTGICCCCA DSNT N-NE CB DSNT N-NE MOV E

More Conditions Fewer Conditions

10-Day Weather Forecast

×

Almanac

Astronomy

Aug. 04, 2015 Rise Set
Actual Time
Civil Twilight
Nautical Twilight
Astronomical Twilight
Moon
Length of Visible Light
Length of Day
Tomorrow will be .
, % of the Moon is Illuminated

Today's Extremes

State Highs State Lows

Community

WunderPhotos

Upload Photos

1,843,880 photos uploaded!

WunderBlogs® & News

Nearby

Air Quality

  Air Quality AQ Index Pollutant
Not available.

Snow Depth

Station Depth Elevation

Earthquake Activity

City Distance Mag. Time & Date
Minimum magnitude displayed is 2.5.

Coastal Water Temperatures

Place Temperature

Stations

Nearby Weather Stations

Station Location Temp. Windchill Dew Point Humidity Wind Precip. Elev Updated Type